createdAt,value
2019-05-01T00:00:20.738Z,9.1
2019-05-01T00:01:32.962Z,8.9
2019-05-01T00:02:45.130Z,9.1
2019-05-01T00:03:57.336Z,9.1
2019-05-01T00:05:09.541Z,9
2019-05-01T00:06:21.732Z,9.1
2019-05-01T00:07:33.936Z,9.1
2019-05-01T00:08:46.490Z,9
2019-05-01T00:09:58.344Z,9.1
2019-05-01T00:11:10.543Z,9
2019-05-01T00:12:22.744Z,9
2019-05-01T00:13:34.943Z,9.1
2019-05-01T00:14:47.138Z,9
2019-05-01T00:15:59.034Z,9.1
2019-05-01T00:17:11.543Z,9.1
2019-05-01T00:18:23.744Z,9.1
2019-05-01T00:19:35.944Z,9.2
2019-05-01T00:20:48.015Z,9
2019-05-01T00:22:00.692Z,9
2019-05-01T00:23:12.055Z,9.1
2019-05-01T00:24:24.753Z,9.1
2019-05-01T00:25:37.301Z,9
2019-05-01T00:26:49.153Z,9.1
2019-05-01T00:28:01.349Z,9
2019-05-01T00:29:13.551Z,9.1
2019-05-01T00:30:25.075Z,9.1
2019-05-01T00:32:50.163Z,9
2019-05-01T00:34:02.367Z,8.9
2019-05-01T00:35:14.566Z,9
2019-05-01T00:36:26.760Z,9
2019-05-01T00:37:38.957Z,8.8
2019-05-01T00:38:51.164Z,8.9
2019-05-01T00:40:03.361Z,8.7
2019-05-01T00:41:15.573Z,8.9
2019-05-01T00:42:27.777Z,8.8
2019-05-01T00:43:39.968Z,8.8
2019-05-01T00:44:52.163Z,8.9
2019-05-01T00:46:04.410Z,8.8
2019-05-01T00:47:16.584Z,8.8
2019-05-01T00:48:28.776Z,8.9
2019-05-01T00:49:40.971Z,8.9
2019-05-01T00:50:53.167Z,8.9
2019-05-01T00:52:05.375Z,8.8
2019-05-01T00:53:17.684Z,8.9
2019-05-01T00:54:29.772Z,8.8
2019-05-01T00:55:41.983Z,8.9
2019-05-01T00:56:54.179Z,8.8
2019-05-01T00:58:06.406Z,8.8
2019-05-01T00:59:18.583Z,8.9
2019-05-01T01:00:30.774Z,8.9
2019-05-01T01:01:42.978Z,9
2019-05-01T01:02:55.204Z,8.8
2019-05-01T01:04:07.389Z,9
2019-05-01T01:05:19.592Z,8.9
2019-05-01T01:06:31.801Z,9
2019-05-01T01:07:43.981Z,9
2019-05-01T01:08:56.193Z,9
2019-05-01T01:10:08.392Z,9
2019-05-01T01:11:20.592Z,8.9
2019-05-01T01:12:32.790Z,9
2019-05-01T01:13:44.981Z,8.9
2019-05-01T01:14:57.197Z,8.9
2019-05-01T01:16:09.397Z,8.9
2019-05-01T01:17:21.589Z,9
2019-05-01T01:18:33.797Z,9
2019-05-01T01:19:46.000Z,8.9
2019-05-01T01:20:58.199Z,8.9
2019-05-01T01:22:10.399Z,8.9
2019-05-01T01:23:22.589Z,8.8
2019-05-01T01:24:34.079Z,9
2019-05-01T01:25:47.008Z,8.9
2019-05-01T01:26:59.020Z,8.9
2019-05-01T01:28:11.407Z,8.9
2019-05-01T01:29:23.605Z,9
2019-05-01T01:30:35.799Z,9
2019-05-01T01:31:48.005Z,9.1
2019-05-01T01:33:00.020Z,9
2019-05-01T01:34:12.405Z,9.1
2019-05-01T01:35:24.617Z,9
2019-05-01T01:36:37.154Z,9
2019-05-01T01:37:49.013Z,9
2019-05-01T01:39:01.213Z,9.1
2019-05-01T01:40:13.420Z,9
2019-05-01T01:41:25.616Z,9
2019-05-01T01:42:37.819Z,8.9
2019-05-01T01:43:50.023Z,9
2019-05-01T01:45:02.223Z,9
2019-05-01T01:46:14.417Z,8.9
2019-05-01T01:47:26.625Z,8.8
2019-05-01T01:48:38.823Z,8.8
2019-05-01T01:49:51.023Z,8.8
2019-05-01T01:51:03.247Z,8.9
2019-05-01T01:52:15.421Z,8.8
2019-05-01T01:53:27.625Z,8.9
2019-05-01T01:54:39.834Z,9
2019-05-01T01:55:52.030Z,8.9
2019-05-01T01:57:04.231Z,8.8
2019-05-01T01:58:16.438Z,8.8
2019-05-01T01:59:28.006Z,8.9
2019-05-01T02:00:40.833Z,9
2019-05-01T02:01:53.031Z,8.9
2019-05-01T02:03:05.228Z,9
2019-05-01T02:04:17.436Z,9
2019-05-01T02:05:29.632Z,8.9
2019-05-01T02:06:41.835Z,8.9
2019-05-01T02:07:54.038Z,8.9
2019-05-01T02:09:06.809Z,9
2019-05-01T02:10:18.048Z,9
2019-05-01T02:11:30.642Z,9
2019-05-01T02:12:42.840Z,8.9
2019-05-01T02:13:55.003Z,9.1
2019-05-01T02:15:07.241Z,9
2019-05-01T02:16:19.452Z,9
2019-05-01T02:17:31.654Z,8.9
2019-05-01T02:18:43.853Z,9
2019-05-01T02:19:56.050Z,9
2019-05-01T02:21:08.250Z,9
2019-05-01T02:22:20.455Z,8.9
2019-05-01T02:23:32.652Z,9
2019-05-01T02:24:44.849Z,9.1
2019-05-01T02:25:57.052Z,9.1
2019-05-01T02:27:09.260Z,9.1
2019-05-01T02:28:21.453Z,9
2019-05-01T02:29:33.662Z,9.1
2019-05-01T02:30:45.858Z,9.1
2019-05-01T02:31:58.054Z,9
2019-05-01T02:33:10.264Z,9.1
2019-05-01T02:34:22.046Z,9.2
2019-05-01T02:35:34.660Z,9.1
2019-05-01T02:36:46.869Z,9.1
2019-05-01T02:37:59.000Z,9.1
2019-05-01T02:39:11.266Z,9.1
2019-05-01T02:40:23.470Z,9.2
2019-05-01T02:41:35.670Z,9.1
2019-05-01T02:42:47.884Z,9.2
2019-05-01T02:44:00.068Z,9
2019-05-01T02:45:12.293Z,9.1
2019-05-01T02:46:24.482Z,9.1
2019-05-01T02:47:36.680Z,9.2
2019-05-01T02:48:48.883Z,9
2019-05-01T02:50:01.007Z,9.1
2019-05-01T02:51:13.600Z,9.1
2019-05-01T02:52:25.477Z,9.2
2019-05-01T02:53:37.678Z,9.1
2019-05-01T02:54:49.911Z,9.2
2019-05-01T02:56:02.014Z,9.1
2019-05-01T02:57:14.293Z,9.1
2019-05-01T02:58:26.489Z,9.1
2019-05-01T02:59:38.681Z,9.1
2019-05-01T03:00:50.893Z,9.2
2019-05-01T03:02:03.084Z,9.1
2019-05-01T03:03:15.288Z,9.2
2019-05-01T03:04:27.488Z,9.1
2019-05-01T03:05:39.692Z,9.2
2019-05-01T03:06:51.894Z,9.1
2019-05-01T03:08:04.090Z,9.1
2019-05-01T03:09:16.296Z,9.2
2019-05-01T03:10:28.495Z,9.3
2019-05-01T03:11:40.694Z,9.2
2019-05-01T03:12:52.898Z,9
2019-05-01T03:14:05.096Z,9.1
2019-05-01T03:15:17.294Z,9.2
2019-05-01T03:16:29.504Z,9.2
2019-05-01T03:17:41.721Z,9.1
2019-05-01T03:18:53.902Z,9.2
2019-05-01T03:20:06.102Z,9.2
2019-05-01T03:21:18.332Z,9.2
2019-05-01T03:22:30.504Z,9.2
2019-05-01T03:23:42.696Z,9.2
2019-05-01T03:24:54.902Z,9.2
2019-05-01T03:26:07.108Z,9.2
2019-05-01T03:27:19.032Z,9.1
2019-05-01T03:28:31.510Z,9.1
2019-05-01T03:29:43.714Z,9.1
2019-05-01T03:30:55.912Z,9.2
2019-05-01T03:32:08.116Z,9.2
2019-05-01T03:33:20.311Z,9.1
2019-05-01T03:35:44.714Z,9.1
2019-05-01T03:36:57.167Z,9.1
2019-05-01T03:38:09.122Z,9.1
2019-05-01T03:39:21.322Z,9.1
2019-05-01T03:40:33.514Z,9.1
2019-05-01T03:41:45.720Z,9.1
2019-05-01T03:42:57.924Z,9.1
2019-05-01T03:44:10.124Z,9.1
2019-05-01T03:45:22.320Z,9.1
2019-05-01T03:46:34.517Z,9
2019-05-01T03:47:46.727Z,9
2019-05-01T03:48:59.061Z,9
2019-05-01T03:50:11.125Z,9
2019-05-01T03:51:23.320Z,9.2
2019-05-01T03:52:35.051Z,9
2019-05-01T03:53:47.726Z,9.2
2019-05-01T03:54:59.920Z,9.1
2019-05-01T03:56:12.151Z,9.2
2019-05-01T03:57:24.309Z,9
2019-05-01T03:58:36.529Z,9
2019-05-01T03:59:48.705Z,9
2019-05-01T04:01:00.090Z,9
2019-05-01T04:02:13.108Z,9.2
2019-05-01T04:03:25.306Z,9.1
2019-05-01T04:04:37.516Z,8.9
2019-05-01T04:05:49.706Z,9.1
2019-05-01T04:07:01.904Z,9
2019-05-01T04:08:14.110Z,9.1
2019-05-01T04:09:26.290Z,9.2
2019-05-01T04:10:38.500Z,9.3
2019-05-01T04:11:50.697Z,9.1
2019-05-01T04:13:02.903Z,9
2019-05-01T04:14:15.098Z,9.1
2019-05-01T04:15:27.301Z,9.3
2019-05-01T04:16:39.493Z,9.1
2019-05-01T04:17:51.704Z,9.1
2019-05-01T04:19:03.899Z,9.2
2019-05-01T04:20:16.095Z,9.2
2019-05-01T04:21:28.297Z,9.2
2019-05-01T04:22:40.479Z,9.3
2019-05-01T04:23:52.068Z,9.3
2019-05-01T04:25:04.088Z,9.2
2019-05-01T04:26:17.085Z,9.2
2019-05-01T04:27:29.287Z,9.5
2019-05-01T04:28:41.489Z,9.3
2019-05-01T04:29:53.685Z,9.3
2019-05-01T04:31:05.886Z,9.3
2019-05-01T04:32:18.079Z,9.4
2019-05-01T04:33:30.287Z,9.3
2019-05-01T04:34:42.473Z,9.6
2019-05-01T04:35:54.676Z,9.4
2019-05-01T04:37:06.877Z,9.4
2019-05-01T04:38:19.075Z,9.4
2019-05-01T04:39:31.270Z,9.3
2019-05-01T04:40:43.047Z,9.4
2019-05-01T04:41:55.681Z,9.4
2019-05-01T04:43:07.875Z,9.4
2019-05-01T04:44:20.087Z,9.5
2019-05-01T04:45:32.272Z,9.5
2019-05-01T04:46:44.475Z,9.4
2019-05-01T04:47:56.066Z,9.4
2019-05-01T04:49:08.857Z,9.5
2019-05-01T04:50:21.063Z,9.5
2019-05-01T04:51:33.261Z,9.5
2019-05-01T04:52:45.492Z,9.4
2019-05-01T04:53:57.663Z,9.4
2019-05-01T04:55:09.857Z,9.5
2019-05-01T04:56:22.069Z,9.5
2019-05-01T04:57:34.272Z,9.5
2019-05-01T04:58:46.463Z,9.5
2019-05-01T04:59:58.665Z,9.5
2019-05-01T05:01:10.877Z,9.4
2019-05-01T05:02:23.053Z,9.4
2019-05-01T05:03:35.251Z,9.5
2019-05-01T05:04:47.455Z,9.4
2019-05-01T05:06:00.210Z,9.6
2019-05-01T05:07:11.853Z,9.4
2019-05-01T05:08:24.043Z,9.5
2019-05-01T05:09:36.251Z,9.5
2019-05-01T05:10:48.449Z,9.5
2019-05-01T05:12:00.678Z,9.6
2019-05-01T05:13:12.853Z,9.5
2019-05-01T05:14:25.313Z,9.4
2019-05-01T05:15:37.251Z,9.6
2019-05-01T05:16:49.441Z,9.6
2019-05-01T05:18:01.645Z,9.7
2019-05-01T05:19:13.084Z,9.6
2019-05-01T05:20:26.270Z,9.4
2019-05-01T05:21:38.263Z,9.6
2019-05-01T05:22:50.443Z,9.6
2019-05-01T05:24:02.634Z,9.5
2019-05-01T05:25:14.831Z,9.5
2019-05-01T05:26:27.056Z,9.6
2019-05-01T05:27:39.238Z,9.6
2019-05-01T05:28:51.473Z,9.6
2019-05-01T05:30:03.643Z,9.6
2019-05-01T05:31:15.826Z,9.5
2019-05-01T05:32:28.029Z,9.6
2019-05-01T05:33:40.227Z,9.6
2019-05-01T05:34:52.434Z,9.7
2019-05-01T05:36:04.062Z,9.6
2019-05-01T05:37:16.821Z,9.5
2019-05-01T05:38:29.031Z,9.6
2019-05-01T05:39:41.226Z,9.6
2019-05-01T05:40:53.041Z,9.6
2019-05-01T05:42:05.625Z,9.7
2019-05-01T05:43:17.082Z,9.6
2019-05-01T05:44:30.017Z,9.6
2019-05-01T05:45:42.235Z,9.8
2019-05-01T05:46:54.419Z,9.5
2019-05-01T05:48:06.617Z,9.6
2019-05-01T05:49:18.817Z,9.5
2019-05-01T05:50:31.018Z,9.6
2019-05-01T05:51:43.217Z,9.6
2019-05-01T05:52:55.419Z,9.7
2019-05-01T05:54:07.610Z,9.6
2019-05-01T05:55:19.817Z,9.7
2019-05-01T05:56:32.001Z,9.6
2019-05-01T05:57:44.021Z,9.7
2019-05-01T05:58:56.407Z,9.6
2019-05-01T06:00:08.600Z,9.7
2019-05-01T06:01:20.804Z,9.7
2019-05-01T06:02:33.006Z,9.6
2019-05-01T06:03:45.198Z,9.5
2019-05-01T06:04:57.405Z,9.7
2019-05-01T06:06:09.608Z,9.5
2019-05-01T06:07:21.815Z,9.7
2019-05-01T06:08:34.002Z,9.8
2019-05-01T06:09:46.197Z,9.6
2019-05-01T06:10:58.402Z,9.7
2019-05-01T06:12:10.601Z,9.6
2019-05-01T06:13:22.802Z,9.7
2019-05-01T06:14:34.099Z,9.7
2019-05-01T06:15:47.201Z,9.8
2019-05-01T06:16:59.397Z,9.7
2019-05-01T06:18:11.597Z,9.7
2019-05-01T06:19:23.792Z,9.7
2019-05-01T06:20:35.993Z,9.8
2019-05-01T06:21:48.193Z,9.7
2019-05-01T06:23:00.388Z,9.8
2019-05-01T06:24:12.592Z,9.6
2019-05-01T06:25:24.790Z,9.6
2019-05-01T06:26:37.000Z,9.5
2019-05-01T06:27:49.190Z,9.7
2019-05-01T06:29:01.392Z,9.6
2019-05-01T06:30:13.590Z,9.6
2019-05-01T06:31:25.782Z,9.6
2019-05-01T06:32:37.979Z,9.6
2019-05-01T06:33:50.189Z,9.7
2019-05-01T06:35:02.380Z,9.6
2019-05-01T06:36:14.582Z,9.6
2019-05-01T06:37:26.782Z,9.6
2019-05-01T06:38:38.982Z,9.5
2019-05-01T06:39:51.182Z,9.6
2019-05-01T06:41:03.389Z,9.6
2019-05-01T06:42:15.579Z,9.7
2019-05-01T06:43:27.780Z,9.7
2019-05-01T06:44:39.980Z,9.7
2019-05-01T06:45:52.163Z,9.9
2019-05-01T06:47:04.376Z,9.8
2019-05-01T06:48:16.568Z,9.8
2019-05-01T06:49:28.814Z,9.7
2019-05-01T06:50:40.971Z,9.7
2019-05-01T06:51:53.169Z,9.7
2019-05-01T06:53:05.376Z,9.7
2019-05-01T06:54:17.572Z,9.6
2019-05-01T06:55:29.763Z,9.6
2019-05-01T06:56:41.975Z,9.8
2019-05-01T06:57:54.174Z,9.7
2019-05-01T06:59:06.384Z,9.6
2019-05-01T07:00:18.557Z,9.7
2019-05-01T07:01:30.757Z,9.8
2019-05-01T07:02:42.958Z,9.7
2019-05-01T07:03:55.157Z,9.6
2019-05-01T07:06:19.559Z,9.6
2019-05-01T07:07:31.760Z,9.7
2019-05-01T07:08:43.951Z,9.9
2019-05-01T07:09:56.157Z,9.9
2019-05-01T07:11:08.003Z,9.8
2019-05-01T07:12:20.562Z,9.8
2019-05-01T07:13:32.757Z,9.8
2019-05-01T07:14:44.957Z,9.8
2019-05-01T07:15:57.145Z,9.6
2019-05-01T07:17:09.347Z,9.7
2019-05-01T07:18:21.557Z,9.7
2019-05-01T07:19:33.745Z,9.7
2019-05-01T07:20:45.969Z,9.6
2019-05-01T07:21:58.147Z,9.8
2019-05-01T07:23:10.351Z,9.7
2019-05-01T07:24:22.551Z,9.8
2019-05-01T07:25:34.738Z,9.7
2019-05-01T07:26:46.946Z,9.7
2019-05-01T07:27:59.143Z,9.7
2019-05-01T07:29:11.346Z,9.6
2019-05-01T07:30:23.534Z,9.8
2019-05-01T07:31:35.748Z,9.7
2019-05-01T07:32:47.933Z,9.7
2019-05-01T07:34:00.135Z,9.8
2019-05-01T07:35:12.774Z,9.8
2019-05-01T07:36:24.535Z,9.9
2019-05-01T07:37:36.733Z,9.7
2019-05-01T07:38:48.936Z,9.9
2019-05-01T07:40:01.132Z,9.8
2019-05-01T07:41:13.327Z,9.7
2019-05-01T07:42:25.532Z,9.9
2019-05-01T07:43:37.073Z,9.9
2019-05-01T07:44:49.924Z,10
2019-05-01T07:46:02.123Z,9.9
2019-05-01T07:47:14.322Z,10
2019-05-01T07:48:26.052Z,9.9
2019-05-01T07:49:38.072Z,10
2019-05-01T07:50:50.922Z,9.9
2019-05-01T07:52:03.123Z,9.9
2019-05-01T07:53:15.323Z,9.9
2019-05-01T07:54:27.702Z,9.9
2019-05-01T07:55:39.738Z,9.8
2019-05-01T07:56:51.921Z,10
2019-05-01T07:58:04.114Z,9.9
2019-05-01T07:59:16.032Z,9.9
2019-05-01T08:00:28.512Z,10
2019-05-01T08:01:40.071Z,10.1
2019-05-01T08:02:52.908Z,9.9
2019-05-01T08:04:05.360Z,9.9
2019-05-01T08:05:17.310Z,9.9
2019-05-01T08:06:29.510Z,10
2019-05-01T08:07:41.070Z,10.1
2019-05-01T08:08:53.908Z,9.9
2019-05-01T08:10:06.113Z,10.1
2019-05-01T08:11:18.306Z,10.2
2019-05-01T08:12:30.507Z,10.1
2019-05-01T08:13:42.717Z,10.1
2019-05-01T08:14:54.915Z,10
2019-05-01T08:16:07.110Z,10.1
2019-05-01T08:17:19.293Z,10.1
2019-05-01T08:18:31.499Z,10.1
2019-05-01T08:19:43.699Z,10.1
2019-05-01T08:20:55.891Z,10.1
2019-05-01T08:22:08.095Z,10
2019-05-01T08:23:20.297Z,10.1
2019-05-01T08:24:32.498Z,10.2
2019-05-01T08:25:44.752Z,10.3
2019-05-01T08:26:56.089Z,10.2
2019-05-01T08:28:09.092Z,10.2
2019-05-01T08:29:21.304Z,10.2
2019-05-01T08:30:33.497Z,10.2
2019-05-01T08:31:45.069Z,10.3
2019-05-01T08:32:57.895Z,10.4
2019-05-01T08:34:10.079Z,10.1
2019-05-01T08:35:22.285Z,10.3
2019-05-01T08:36:34.486Z,10.2
2019-05-01T08:37:46.680Z,10.2
2019-05-01T08:38:58.884Z,10.3
2019-05-01T08:40:11.088Z,10.3
2019-05-01T08:41:23.286Z,10.3
2019-05-01T08:42:35.048Z,10.2
2019-05-01T08:43:47.677Z,10.2
2019-05-01T08:44:59.888Z,10.2
2019-05-01T08:46:12.087Z,10.4
2019-05-01T08:47:24.284Z,10.4
2019-05-01T08:48:36.484Z,10.3
2019-05-01T08:49:48.006Z,10.2
2019-05-01T08:51:00.867Z,10.2
2019-05-01T08:52:13.073Z,10.2
2019-05-01T08:53:25.273Z,10.2
2019-05-01T08:54:37.484Z,10.2
2019-05-01T08:55:50.000Z,10.3
2019-05-01T08:57:01.866Z,10.3
2019-05-01T08:58:14.072Z,10.3
2019-05-01T08:59:26.279Z,10.2
2019-05-01T09:00:38.471Z,10.3
2019-05-01T09:01:50.672Z,10.2
2019-05-01T09:03:02.864Z,10.3
2019-05-01T09:04:15.071Z,10.4
2019-05-01T09:05:27.262Z,10.3
2019-05-01T09:06:39.457Z,10.2
2019-05-01T09:07:51.653Z,10.3
2019-05-01T09:09:03.861Z,10.4
2019-05-01T09:10:16.067Z,10.4
2019-05-01T09:11:28.262Z,10.5
2019-05-01T09:12:40.462Z,10.5
2019-05-01T09:13:52.958Z,10.5
2019-05-01T09:15:04.877Z,10.5
2019-05-01T09:16:17.059Z,10.6
2019-05-01T09:17:29.558Z,10.6
2019-05-01T09:18:41.467Z,10.7
2019-05-01T09:19:53.642Z,10.5
2019-05-01T09:21:05.849Z,10.6
2019-05-01T09:22:18.056Z,10.6
2019-05-01T09:23:30.242Z,10.6
2019-05-01T09:24:42.455Z,10.6
2019-05-01T09:25:54.065Z,10.6
2019-05-01T09:27:06.850Z,10.5
2019-05-01T09:28:19.073Z,10.5
2019-05-01T09:29:31.262Z,10.5
2019-05-01T09:30:43.447Z,10.6
2019-05-01T09:31:55.647Z,10.6
2019-05-01T09:33:07.008Z,10.6
2019-05-01T09:34:20.043Z,10.5
2019-05-01T09:35:32.243Z,10.5
2019-05-01T09:36:44.431Z,10.6
2019-05-01T09:37:56.640Z,10.6
2019-05-01T09:39:08.836Z,10.4
2019-05-01T09:40:21.040Z,10.6
2019-05-01T09:41:33.238Z,10.6
2019-05-01T09:42:45.043Z,10.7
2019-05-01T09:43:57.637Z,10.6
2019-05-01T09:45:09.841Z,10.6
2019-05-01T09:46:22.048Z,10.7
2019-05-01T09:47:34.237Z,10.7
2019-05-01T09:48:46.426Z,10.8
2019-05-01T09:49:58.626Z,10.7
2019-05-01T09:51:10.829Z,10.8
2019-05-01T09:52:23.031Z,10.8
2019-05-01T09:53:35.220Z,10.7
2019-05-01T09:54:47.429Z,10.7
2019-05-01T09:57:11.824Z,10.7
2019-05-01T09:58:24.026Z,10.8
2019-05-01T09:59:36.225Z,10.8
2019-05-01T10:00:48.427Z,10.7
2019-05-01T10:02:00.705Z,10.7
2019-05-01T10:03:12.817Z,10.7
2019-05-01T10:04:25.013Z,10.9
2019-05-01T10:05:37.216Z,11
2019-05-01T10:06:49.041Z,10.9
2019-05-01T10:08:01.608Z,10.8
2019-05-01T10:09:13.814Z,10.8
2019-05-01T10:10:26.009Z,10.8
2019-05-01T10:11:38.215Z,10.8
2019-05-01T10:12:50.413Z,10.9
2019-05-01T10:14:02.608Z,11
2019-05-01T10:15:14.816Z,10.8
2019-05-01T10:16:27.015Z,10.7
2019-05-01T10:17:39.219Z,10.7
2019-05-01T10:18:51.413Z,10.8
2019-05-01T10:20:03.610Z,10.9
2019-05-01T10:21:15.816Z,10.8
2019-05-01T10:22:28.008Z,10.7
2019-05-01T10:23:40.205Z,10.7
2019-05-01T10:24:52.403Z,10.7
2019-05-01T10:26:04.605Z,10.7
2019-05-01T10:27:16.799Z,10.7
2019-05-01T10:28:29.001Z,10.7
2019-05-01T10:29:41.203Z,10.7
2019-05-01T10:30:53.403Z,10.7
2019-05-01T10:32:05.610Z,10.7
2019-05-01T10:33:17.799Z,10.6
2019-05-01T10:34:29.996Z,10.7
2019-05-01T10:35:42.203Z,10.8
2019-05-01T10:36:54.039Z,10.7
2019-05-01T10:38:06.625Z,10.9
2019-05-01T10:39:18.079Z,10.7
2019-05-01T10:40:30.993Z,10.7
2019-05-01T10:41:43.202Z,10.7
2019-05-01T10:42:55.391Z,10.7
2019-05-01T10:44:07.844Z,10.8
2019-05-01T10:45:19.793Z,10.8
2019-05-01T10:46:31.993Z,10.8
2019-05-01T10:47:44.196Z,10.8
2019-05-01T10:48:56.393Z,11
2019-05-01T10:50:08.584Z,10.9
2019-05-01T10:51:20.795Z,10.9
2019-05-01T10:52:32.099Z,11
2019-05-01T10:53:45.182Z,11
2019-05-01T10:54:57.381Z,11
2019-05-01T10:56:09.080Z,11
2019-05-01T10:57:21.782Z,11.1
2019-05-01T10:58:33.097Z,11
2019-05-01T10:59:46.001Z,11.1
2019-05-01T11:00:58.385Z,11.1
2019-05-01T11:02:10.580Z,11.2
2019-05-01T11:03:22.784Z,11.2
2019-05-01T11:04:34.982Z,11.1
2019-05-01T11:05:47.183Z,11.1
2019-05-01T11:06:59.380Z,11.1
2019-05-01T11:08:11.569Z,11.1
2019-05-01T11:09:23.772Z,11.2
2019-05-01T11:10:35.974Z,11.1
2019-05-01T11:11:48.170Z,11.2
2019-05-01T11:13:00.363Z,11
2019-05-01T11:14:12.601Z,11.2
2019-05-01T11:15:24.770Z,11.2
2019-05-01T11:16:36.961Z,11
2019-05-01T11:17:49.170Z,11.1
2019-05-01T11:19:01.373Z,11
2019-05-01T11:20:13.569Z,11.1
2019-05-01T11:21:25.768Z,11.2
2019-05-01T11:22:37.970Z,11.2
2019-05-01T11:23:50.170Z,11.1
2019-05-01T11:25:02.360Z,11.2
2019-05-01T11:26:14.646Z,11.2
2019-05-01T11:27:26.773Z,11.1
2019-05-01T11:28:38.958Z,11.1
2019-05-01T11:29:51.151Z,11
2019-05-01T11:31:03.362Z,11
2019-05-01T11:32:15.556Z,10.9
2019-05-01T11:33:27.752Z,11
2019-05-01T11:34:39.956Z,11
2019-05-01T11:35:52.158Z,11.1
2019-05-01T11:37:04.365Z,10.9
2019-05-01T11:38:16.005Z,10.9
2019-05-01T11:39:28.750Z,10.9
2019-05-01T11:40:40.950Z,11.1
2019-05-01T11:41:53.014Z,11.1
2019-05-01T11:43:05.346Z,11.2
2019-05-01T11:44:17.546Z,11.2
2019-05-01T11:45:29.750Z,11.1
2019-05-01T11:46:41.948Z,11.4
2019-05-01T11:47:54.148Z,11.1
2019-05-01T11:49:06.348Z,11.2
2019-05-01T11:50:18.548Z,11.5
2019-05-01T11:51:30.752Z,11.4
2019-05-01T11:52:42.944Z,11.3
2019-05-01T11:53:55.148Z,11.2
2019-05-01T11:55:07.351Z,11.4
2019-05-01T11:56:19.958Z,11.6
2019-05-01T11:57:31.073Z,11.6
2019-05-01T11:58:43.935Z,11.5
2019-05-01T11:59:56.134Z,11.5
2019-05-01T12:01:08.036Z,11.6
2019-05-01T12:02:20.539Z,11.5
2019-05-01T12:03:32.738Z,11.4
2019-05-01T12:04:44.934Z,11.6
2019-05-01T12:05:57.140Z,11.3
2019-05-01T12:07:09.332Z,11.4
2019-05-01T12:08:21.534Z,11.3
2019-05-01T12:09:33.733Z,11.3
2019-05-01T12:10:45.936Z,11.1
2019-05-01T12:11:58.134Z,11.2
2019-05-01T12:13:10.031Z,11.2
2019-05-01T12:14:22.524Z,11.1
2019-05-01T12:15:34.726Z,11.1
2019-05-01T12:16:46.931Z,11.1
2019-05-01T12:17:59.124Z,11
2019-05-01T12:19:11.320Z,11
2019-05-01T12:20:23.531Z,11.1
2019-05-01T12:21:35.742Z,11
2019-05-01T12:22:47.939Z,11
2019-05-01T12:24:00.124Z,10.9
2019-05-01T12:25:12.324Z,10.9
2019-05-01T12:26:24.532Z,10.8
2019-05-01T12:27:36.717Z,10.8
2019-05-01T12:28:48.913Z,10.8
2019-05-01T12:30:01.109Z,10.8
2019-05-01T12:31:13.327Z,10.8
2019-05-01T12:32:25.551Z,10.8
2019-05-01T12:33:37.071Z,10.8
2019-05-01T12:34:49.915Z,10.7
2019-05-01T12:36:02.106Z,11
2019-05-01T12:37:14.313Z,11
2019-05-01T12:38:26.513Z,10.8
2019-05-01T12:39:38.073Z,10.8
2019-05-01T12:40:50.951Z,10.8
2019-05-01T12:42:03.115Z,10.9
2019-05-01T12:43:15.305Z,10.9
2019-05-01T12:44:27.501Z,10.6
2019-05-01T12:45:39.759Z,10.8
2019-05-01T12:46:51.905Z,10.6
2019-05-01T12:48:04.103Z,10.6
2019-05-01T12:49:16.296Z,10.6
2019-05-01T12:50:28.058Z,10.7
2019-05-01T12:51:40.702Z,10.5
2019-05-01T12:52:52.897Z,10.6
2019-05-01T12:54:05.101Z,10.6
2019-05-01T12:55:17.306Z,10.4
2019-05-01T12:56:29.517Z,10.5
2019-05-01T12:57:41.704Z,10.4
2019-05-01T12:58:53.891Z,10.5
2019-05-01T13:00:06.058Z,10.4
2019-05-01T13:01:18.291Z,10.4
2019-05-01T13:02:30.490Z,10.4
2019-05-01T13:03:42.715Z,10.7
2019-05-01T13:04:54.089Z,10.5
2019-05-01T13:06:07.091Z,10.6
2019-05-01T13:07:19.292Z,10.7
2019-05-01T13:08:31.491Z,10.5
2019-05-01T13:09:43.684Z,10.7
2019-05-01T13:10:55.927Z,10.6
2019-05-01T13:12:08.085Z,10.4
2019-05-01T13:13:20.296Z,10.6
2019-05-01T13:14:32.482Z,10.6
2019-05-01T13:15:45.676Z,10.7
2019-05-01T13:16:56.874Z,10.4
2019-05-01T13:18:09.081Z,10.4
2019-05-01T13:19:21.028Z,10.5
2019-05-01T13:20:33.473Z,10.4
2019-05-01T13:21:45.680Z,10.3
2019-05-01T13:22:57.993Z,10.4
2019-05-01T13:24:10.091Z,10.3
2019-05-01T13:25:22.293Z,10.3
2019-05-01T13:26:34.494Z,10.4
2019-05-01T13:27:46.717Z,10.4
2019-05-01T13:28:58.888Z,10.2
2019-05-01T13:30:11.088Z,10.2
2019-05-01T13:31:23.316Z,10.3
2019-05-01T13:32:35.491Z,10.3
2019-05-01T13:33:47.688Z,10.4
2019-05-01T13:34:59.891Z,10.2
2019-05-01T13:36:12.090Z,10.3
2019-05-01T13:37:24.283Z,10.4
2019-05-01T13:38:36.513Z,10.4
2019-05-01T13:39:48.691Z,10.3
2019-05-01T13:41:00.901Z,10.3
2019-05-01T13:42:13.088Z,10.4
2019-05-01T13:43:25.285Z,10.4
2019-05-01T13:44:37.485Z,10.5
2019-05-01T13:45:49.687Z,10.7
2019-05-01T13:47:01.900Z,10.6
2019-05-01T13:48:14.100Z,10.6
2019-05-01T13:49:26.318Z,10.6
2019-05-01T13:50:38.503Z,10.7
2019-05-01T13:51:50.724Z,10.8
2019-05-01T13:53:02.900Z,10.7
2019-05-01T13:54:15.090Z,10.6
2019-05-01T13:55:27.303Z,10.7
2019-05-01T13:56:39.492Z,10.7
2019-05-01T13:57:51.698Z,10.8
2019-05-01T13:59:03.899Z,10.8
2019-05-01T14:00:16.102Z,10.7
2019-05-01T14:01:28.309Z,10.7
2019-05-01T14:02:40.510Z,10.9
2019-05-01T14:03:52.708Z,10.7
2019-05-01T14:05:04.090Z,10.7
2019-05-01T14:06:17.102Z,10.8
2019-05-01T14:07:29.306Z,10.7
2019-05-01T14:08:41.506Z,10.7
2019-05-01T14:09:53.084Z,10.8
2019-05-01T14:11:05.090Z,10.5
2019-05-01T14:12:18.108Z,10.6
2019-05-01T14:13:30.300Z,10.6
2019-05-01T14:14:42.505Z,10.6
2019-05-01T14:15:54.716Z,10.5
2019-05-01T14:17:06.907Z,10.5
2019-05-01T14:18:19.114Z,10.5
2019-05-01T14:19:31.031Z,10.5
2019-05-01T14:20:43.514Z,10.6
2019-05-01T14:21:55.715Z,10.5
2019-05-01T14:23:07.009Z,10.6
2019-05-01T14:24:20.116Z,10.6
2019-05-01T14:25:32.031Z,10.5
2019-05-01T14:26:44.518Z,10.6
2019-05-01T14:27:56.714Z,10.6
2019-05-01T14:29:08.926Z,10.5
2019-05-01T14:30:21.120Z,10.7
2019-05-01T14:31:33.323Z,10.5
2019-05-01T14:32:45.520Z,10.5
2019-05-01T14:33:57.071Z,10.6
2019-05-01T14:35:09.921Z,10.4
2019-05-01T14:36:22.122Z,10.5
2019-05-01T14:37:34.332Z,10.7
2019-05-01T14:38:46.524Z,10.5
2019-05-01T14:39:58.718Z,10.5
2019-05-01T14:41:10.935Z,10.5
2019-05-01T14:42:23.133Z,10.6
2019-05-01T14:43:35.341Z,10.5
2019-05-01T14:44:47.535Z,10.8
2019-05-01T14:45:59.754Z,10.7
2019-05-01T14:47:11.927Z,10.8
2019-05-01T14:48:24.133Z,10.8
2019-05-01T14:49:36.332Z,10.7
2019-05-01T14:50:48.548Z,10.7
2019-05-01T14:52:00.734Z,10.7
2019-05-01T14:53:12.925Z,10.8
2019-05-01T14:54:25.134Z,10.7
2019-05-01T14:55:37.360Z,10.8
2019-05-01T14:56:49.542Z,10.7
2019-05-01T14:58:01.759Z,10.7
2019-05-01T14:59:13.943Z,10.6
2019-05-01T15:00:26.145Z,10.7
2019-05-01T15:01:38.472Z,10.6
2019-05-01T15:02:50.535Z,10.6
2019-05-01T15:04:02.745Z,10.4
2019-05-01T15:05:14.941Z,10.6
2019-05-01T15:06:27.145Z,10.5
2019-05-01T15:07:39.344Z,10.5
2019-05-01T15:08:51.543Z,10.5
2019-05-01T15:10:03.757Z,10.5
2019-05-01T15:11:15.956Z,10.6
2019-05-01T15:12:28.201Z,10.5
2019-05-01T15:13:40.353Z,10.5
2019-05-01T15:14:52.554Z,10.6
2019-05-01T15:16:04.752Z,10.6
2019-05-01T15:17:16.952Z,10.6
2019-05-01T15:18:29.160Z,10.5
2019-05-01T15:19:41.699Z,10.6
2019-05-01T15:20:53.552Z,10.6
2019-05-01T15:22:05.075Z,10.8
2019-05-01T15:23:17.960Z,10.8
2019-05-01T15:24:30.162Z,10.8
2019-05-01T15:25:43.354Z,10.8
2019-05-01T15:26:54.558Z,11
2019-05-01T15:28:06.762Z,11
2019-05-01T15:29:18.957Z,11
2019-05-01T15:30:31.159Z,11.1
2019-05-01T15:31:43.359Z,11
2019-05-01T15:32:55.557Z,11
2019-05-01T15:34:07.767Z,10.7
2019-05-01T15:35:19.961Z,10.8
2019-05-01T15:36:32.172Z,10.9
2019-05-01T15:37:44.369Z,10.6
2019-05-01T15:38:56.571Z,10.7
2019-05-01T15:40:08.771Z,10.8
2019-05-01T15:41:20.968Z,10.7
2019-05-01T15:42:33.016Z,10.8
2019-05-01T15:43:45.389Z,10.7
2019-05-01T15:44:57.061Z,10.8
2019-05-01T15:46:09.076Z,10.8
2019-05-01T15:47:22.204Z,10.7
2019-05-01T15:48:34.173Z,10.7
2019-05-01T15:49:46.382Z,10.8
2019-05-01T15:50:58.579Z,10.9
2019-05-01T15:52:10.078Z,10.9
2019-05-01T15:53:22.000Z,10.8
2019-05-01T15:54:35.192Z,10.8
2019-05-01T15:56:59.579Z,10.9
2019-05-01T15:58:11.779Z,10.8
2019-05-01T15:59:23.973Z,10.9
2019-05-01T16:00:36.189Z,10.7
2019-05-01T16:01:48.399Z,11
2019-05-01T16:03:00.596Z,10.7
2019-05-01T16:04:12.833Z,10.6
2019-05-01T16:05:24.995Z,10.6
2019-05-01T16:06:37.187Z,10.7
2019-05-01T16:07:49.388Z,10.7
2019-05-01T16:09:01.585Z,10.8
2019-05-01T16:10:13.792Z,10.8
2019-05-01T16:11:25.991Z,10.8
2019-05-01T16:12:38.194Z,10.8
2019-05-01T16:13:50.402Z,10.8
2019-05-01T16:15:02.599Z,10.8
2019-05-01T16:16:14.791Z,11.1
2019-05-01T16:17:26.996Z,11
2019-05-01T16:18:39.028Z,10.8
2019-05-01T16:19:51.401Z,10.7
2019-05-01T16:21:03.604Z,10.7
2019-05-01T16:22:15.797Z,10.6
2019-05-01T16:23:27.996Z,10.8
2019-05-01T16:24:40.197Z,10.7
2019-05-01T16:25:52.410Z,10.5
2019-05-01T16:27:04.606Z,10.5
2019-05-01T16:28:16.080Z,10.7
2019-05-01T16:29:29.010Z,10.6
2019-05-01T16:30:41.210Z,10.6